Aérodrome :
LOGIN :

S'inscrire | Disclaimer

   EN    FR    IT 

 










Légende :    VFR   VFR Marginal   IFR   IFR Intensif   IFR Très Intensif
Visi : 
Plafond : 
>= 8 km
>= 3000ft
5 à 8 km
1000 à 3000 ft
1500m à 5 km
500 à 1000 ft
800 à 1500m
200 à 500 ft
< 800m
< 200 ft
Symboles :   Orages  Brouillard  Fortes neiges  Fortes précipitations  Vent > 20 kt
SIGMETs :   Divers  Orages  Givrage  Turbulence  Onde Orograph.  Cendres Volcan.







- Altitude de l'aérodrome : 26 ft
- Code IATA : BIA
- Voir les cartes d'approche


LFKB - Bastia

DERNIER METAR :
  • 132000Z AUTO 25004KT 5000 -RA BR BKN017 BKN025 BKN033 08/08 Q1010 TEMPO SHRA BKN010 OVC020 SCT030TCU BECMG 33010KT

METARs EXPIRÉS :
  • 131930Z AUTO VRB03KT 5000 RA BR BKN018 BKN023 BKN033 08/07 Q1010 TEMPO BKN010 OVC020 SCT030TCU
  • 131900Z AUTO 27004KT 240V300 9999 RA BKN019/// BKN025/// BKN039/// ///TCU 08/07 Q1010 TEMPO 4000 SHRA BKN010 OVC020 SCT030TCU
  • 131830Z AUTO 27005KT 8000 RA SCT019/// BKN025/// BKN031/// ///TCU 08/07 Q1010 TEMPO 4000 SHRA BKN010 OVC020 SCT030TCU BECMG 33010KT
  • 131800Z AUTO 29006KT 5000 RA BR SCT018/// BKN026/// OVC033/// ///TCU 08/07 Q1010 TEMPO BKN010 OVC020 SCT030TCU
  • 131730Z AUTO 29005KT 8000 RA FEW017/// BKN024/// BKN029/// ///TCU 08/07 Q1010 TEMPO 4000 SHRA BKN010 OVC020 SCT030TCU

TAF TAF LFKB
Valide du 13 à 15h jusqu'au 14 à 15h UTC


131400Z 1315/1415 33010KT 8000 -RA SCT012 BKN020 OVC030 TX12/1413Z TN07/1403Z
TEMPO 1315/1324 4000 SHRA BKN010 OVC020 SCT030TCU
BECMG 1406/1408 32012KT SCT030
BECMG 1414/1415 CAVOK
ATIS : +33 4 95 59 19 40
Pas de NOTAMs connus pour ce terrain.
1 SIGMET publié pour la FIR Marseille (LFMM) :
 
Givrage fort
LFMM SIGMET 6 VALID 131900/132300 LFPW
LFMM MARSEILLE FIR/UIR SEV ICE OBS AT 1900Z SE OF LINE N3900 E00615 - N4330 E00830 FL170/240 MOV E 5KT NC=



MET'MAP, la Météo Aéronautique d'un coup d'oeil ! - Copyright ORBIFLY Décembre 2007 - Disclaimer

ORBIFLY MET'MAP TEAM :

Programmation & Développement : Alexandra Zaïnal
Conception & Développement : Baudouin d'Aumeries
Co-Programmation & Développement : Marc-Olivier Méhu
Soutien technique & logistique : Manuel Goepfert

Contact : metmap@orbifly.com




SOURCES & CREDITS :

   NOAA